Votorantim, Brazil
Current Conditions -  °F | °C
As of 4:00 AM on Monday 26 Jan 2015 (Local Time) from SBKP Reporting Station
Light Rain Light Rain  
Wind Chill: 66°   Ceiling: 7000
Heat Index: 66°   Visibility: 5mi
Dew Point: 66°   Wind: 13mph
Humidity: 100%   Direction: 180°S
Pressure: 30.06"   Gusts: NA
Location:  23.55°S, 47.43°W
Report Text: SBKP 260600Z 18011KT 8000 -RA FEW015 SCT030 OVC070 19/19 Q1018 RETS
Loading
Personal Weather Stations






























Interactive Weather Map New forecast layout! Learn more

10-Day Weather Forecast

Advertisements
Track Severe Weather on mobile